createdAt,value
2023-02-15T00:00:19.709Z,1.72
2023-02-15T00:03:07.937Z,1.70
2023-02-15T00:05:36.392Z,1.68
2023-02-15T00:08:04.953Z,1.65
2023-02-15T00:10:33.158Z,1.64
2023-02-15T00:13:01.648Z,1.62
2023-02-15T00:15:30.854Z,1.60
2023-02-15T00:17:59.031Z,1.57
2023-02-15T00:20:27.315Z,1.55
2023-02-15T00:22:55.904Z,1.53
2023-02-15T00:25:24.306Z,1.50
2023-02-15T00:27:52.569Z,1.49
2023-02-15T00:30:21.129Z,1.47
2023-02-15T00:32:49.863Z,1.43
2023-02-15T00:35:18.441Z,1.40
2023-02-15T00:37:46.614Z,1.36
2023-02-15T00:40:15.206Z,1.32
2023-02-15T00:42:43.691Z,1.29
2023-02-15T00:45:11.874Z,1.27
2023-02-15T00:47:40.360Z,1.23
2023-02-15T00:50:09.279Z,1.21
2023-02-15T00:52:37.540Z,1.18
2023-02-15T00:55:06.182Z,1.16
2023-02-15T00:57:34.441Z,1.15
2023-02-15T01:00:03.638Z,1.14
2023-02-15T01:02:32.200Z,1.13
2023-02-15T01:05:00.587Z,1.11
2023-02-15T01:07:28.970Z,1.09
2023-02-15T01:09:57.458Z,1.09
2023-02-15T01:12:25.944Z,1.08
2023-02-15T01:14:54.435Z,1.08
2023-02-15T01:17:22.612Z,1.06
2023-02-15T01:19:52.438Z,1.06
2023-02-15T01:22:20.921Z,1.07
2023-02-15T01:24:52.989Z,1.06
2023-02-15T01:27:21.170Z,1.06
2023-02-15T01:29:49.804Z,1.05
2023-02-15T01:32:18.142Z,1.04
2023-02-15T01:34:46.525Z,1.03
2023-02-15T01:37:15.322Z,1.00
2023-02-15T01:39:43.802Z,0.99
2023-02-15T01:42:13.324Z,0.98
2023-02-15T01:44:44.263Z,0.95
2023-02-15T01:47:17.513Z,0.93
2023-02-15T01:49:49.005Z,0.90
2023-02-15T01:52:19.904Z,0.88
2023-02-15T01:54:49.375Z,0.86
2023-02-15T01:57:25.212Z,0.85
2023-02-15T01:59:57.993Z,0.84
2023-02-15T02:02:28.435Z,0.83
2023-02-15T02:05:07.612Z,0.81
2023-02-15T02:07:42.801Z,0.79
2023-02-15T02:10:14.658Z,0.77
2023-02-15T02:12:46.217Z,0.74
2023-02-15T02:15:15.906Z,0.73
2023-02-15T02:18:03.247Z,0.71
2023-02-15T02:20:37.666Z,0.69
2023-02-15T02:23:23.960Z,0.68
2023-02-15T02:26:19.530Z,0.69
2023-02-15T02:29:28.850Z,0.69
2023-02-15T02:32:23.467Z,0.68
2023-02-15T02:35:02.190Z,0.67
2023-02-15T02:37:57.084Z,0.66
2023-02-15T02:40:57.592Z,0.66
2023-02-15T02:43:39.688Z,0.65
2023-02-15T02:46:16.543Z,0.64
2023-02-15T02:48:45.160Z,0.62
2023-02-15T02:51:15.280Z,0.61
2023-02-15T02:53:44.178Z,0.58
2023-02-15T02:56:20.849Z,0.57
2023-02-15T02:59:05.711Z,0.55
2023-02-15T03:01:47.772Z,0.54
2023-02-15T03:04:29.914Z,0.53
2023-02-15T03:07:06.170Z,0.52
2023-02-15T03:09:44.791Z,0.50
2023-02-15T03:12:22.907Z,0.50
2023-02-15T03:14:58.752Z,0.49
2023-02-15T03:17:30.206Z,0.47
2023-02-15T03:20:03.373Z,0.46
2023-02-15T03:22:44.381Z,0.47
2023-02-15T03:25:22.786Z,0.48
2023-02-15T03:27:55.979Z,0.46
2023-02-15T03:30:26.741Z,0.46
2023-02-15T03:32:59.096Z,0.46
2023-02-15T03:35:44.781Z,0.47
2023-02-15T03:38:18.992Z,0.47
2023-02-15T03:41:07.956Z,0.48
2023-02-15T03:43:56.796Z,0.49
2023-02-15T03:46:35.076Z,0.50
2023-02-15T03:49:22.631Z,0.50
2023-02-15T03:51:54.901Z,0.51
2023-02-15T03:54:43.675Z,0.50
2023-02-15T03:57:38.747Z,0.52
2023-02-15T04:00:37.626Z,0.51
2023-02-15T04:03:12.011Z,0.52
2023-02-15T04:05:41.528Z,0.53
2023-02-15T04:08:10.799Z,0.53
2023-02-15T04:10:54.535Z,0.53
2023-02-15T04:13:30.574Z,0.53
2023-02-15T04:16:05.768Z,0.53
2023-02-15T04:19:00.082Z,0.52
2023-02-15T04:21:49.952Z,0.52
2023-02-15T04:24:37.145Z,0.51
2023-02-15T04:27:07.043Z,0.51
2023-02-15T04:29:35.146Z,0.52
2023-02-15T04:32:04.031Z,0.51
2023-02-15T04:34:32.224Z,0.53
2023-02-15T04:37:00.420Z,0.54
2023-02-15T04:39:28.688Z,0.56
2023-02-15T04:41:57.174Z,0.56
2023-02-15T04:44:25.964Z,0.56
2023-02-15T04:46:54.142Z,0.55
2023-02-15T04:49:22.632Z,0.56
2023-02-15T04:51:51.432Z,0.56
2023-02-15T04:54:19.817Z,0.55
2023-02-15T04:56:48.198Z,0.54
2023-02-15T04:59:16.680Z,0.53
2023-02-15T05:01:44.864Z,0.52
2023-02-15T05:04:13.584Z,0.52
2023-02-15T05:06:42.141Z,0.52
2023-02-15T05:09:15.102Z,0.52
2023-02-15T05:11:43.726Z,0.51
2023-02-15T05:14:12.010Z,0.49
2023-02-15T05:16:40.828Z,0.49
2023-02-15T05:19:09.280Z,0.48
2023-02-15T05:21:37.884Z,0.49
2023-02-15T05:24:26.723Z,0.49
2023-02-15T05:27:13.732Z,0.47
2023-02-15T05:29:42.528Z,0.48
2023-02-15T05:32:14.699Z,0.48
2023-02-15T05:34:43.402Z,0.49
2023-02-15T05:37:11.784Z,0.50
2023-02-15T05:39:40.161Z,0.50
2023-02-15T05:42:08.757Z,0.52
2023-02-15T05:44:37.051Z,0.54
2023-02-15T05:47:08.345Z,0.57
2023-02-15T05:49:37.297Z,0.59
2023-02-15T05:52:06.080Z,0.60
2023-02-15T05:54:34.462Z,0.64
2023-02-15T05:57:02.646Z,0.68
2023-02-15T05:59:31.132Z,0.70
2023-02-15T06:01:59.568Z,0.74
2023-02-15T06:04:28.183Z,0.77
2023-02-15T06:06:56.587Z,0.81
2023-02-15T06:09:24.973Z,0.85
2023-02-15T06:11:53.268Z,0.90
2023-02-15T06:14:22.263Z,0.95
2023-02-15T06:16:50.434Z,1.02
2023-02-15T06:19:18.615Z,1.08
2023-02-15T06:21:46.800Z,1.18
2023-02-15T06:24:14.978Z,1.21
2023-02-15T06:26:43.367Z,1.22
2023-02-15T06:29:11.537Z,1.26
2023-02-15T06:31:39.917Z,1.28
2023-02-15T06:34:09.233Z,1.30
2023-02-15T06:36:37.975Z,1.31
2023-02-15T06:39:06.211Z,1.34
2023-02-15T06:41:34.692Z,1.37
2023-02-15T06:44:03.275Z,1.40
2023-02-15T06:46:31.688Z,1.43
2023-02-15T06:49:00.047Z,1.43
2023-02-15T06:51:28.642Z,1.45
2023-02-15T06:53:57.121Z,1.49
2023-02-15T06:56:25.308Z,1.55
2023-02-15T06:58:53.990Z,1.64
2023-02-15T07:01:22.433Z,1.70
2023-02-15T07:03:51.167Z,1.78
2023-02-15T07:06:19.346Z,1.83
2023-02-15T07:08:47.733Z,1.87
2023-02-15T07:11:35.154Z,1.94
2023-02-15T07:14:03.531Z,1.98
2023-02-15T07:16:31.779Z,2.03
2023-02-15T07:18:59.996Z,2.09
2023-02-15T07:21:28.315Z,2.15
2023-02-15T07:23:59.741Z,2.21
2023-02-15T07:26:27.908Z,2.25
2023-02-15T07:28:56.188Z,2.27
2023-02-15T07:31:24.706Z,2.30
2023-02-15T07:33:53.061Z,2.35
2023-02-15T07:36:21.753Z,2.40
2023-02-15T07:38:50.144Z,2.45
2023-02-15T07:41:18.440Z,2.53
2023-02-15T07:43:46.744Z,2.62
2023-02-15T07:46:17.573Z,2.73
2023-02-15T07:48:45.929Z,2.86
2023-02-15T07:51:15.859Z,2.98
2023-02-15T07:53:44.446Z,3.14
2023-02-15T07:56:14.081Z,3.34
2023-02-15T07:58:59.424Z,3.52
2023-02-15T08:01:33.566Z,3.68
2023-02-15T08:04:02.439Z,3.81
2023-02-15T08:06:34.396Z,3.89
2023-02-15T08:09:08.055Z,4.02
2023-02-15T08:11:40.892Z,4.15
2023-02-15T08:14:28.618Z,4.24
2023-02-15T08:17:03.467Z,4.32
2023-02-15T08:19:33.596Z,4.35
2023-02-15T08:22:05.171Z,4.45
2023-02-15T08:24:37.667Z,4.63
2023-02-15T08:27:07.763Z,4.84
2023-02-15T08:29:37.746Z,4.97
2023-02-15T08:32:13.090Z,5.10
2023-02-15T08:34:43.062Z,5.08
2023-02-15T08:37:11.506Z,5.15
2023-02-15T08:39:40.208Z,5.12
2023-02-15T08:42:08.578Z,5.14
2023-02-15T08:44:36.989Z,5.13
2023-02-15T08:47:05.344Z,5.17
2023-02-15T08:49:33.849Z,5.30
2023-02-15T08:52:02.321Z,5.50
2023-02-15T08:54:31.117Z,5.66
2023-02-15T08:57:00.697Z,5.68
2023-02-15T08:59:29.427Z,5.65
2023-02-15T09:01:58.182Z,5.71
2023-02-15T09:04:26.599Z,5.86
2023-02-15T09:06:54.780Z,6.00
2023-02-15T09:09:23.368Z,6.21
2023-02-15T09:11:58.821Z,6.29
2023-02-15T09:14:28.579Z,6.23
2023-02-15T09:16:57.657Z,6.10
2023-02-15T09:19:26.333Z,6.28
2023-02-15T09:21:54.980Z,6.55
2023-02-15T09:24:23.293Z,7.04
2023-02-15T09:26:51.790Z,6.88
2023-02-15T09:29:20.962Z,6.95
2023-02-15T09:31:51.601Z,7.18
2023-02-15T09:34:22.352Z,7.03
2023-02-15T09:36:52.040Z,6.67
2023-02-15T09:39:24.904Z,6.45
2023-02-15T09:41:53.949Z,6.29
2023-02-15T09:44:25.208Z,6.64
2023-02-15T09:47:06.489Z,8.07
2023-02-15T09:49:40.697Z,9.35
2023-02-15T09:52:37.735Z,9.24
2023-02-15T09:55:20.968Z,8.73
2023-02-15T09:58:14.112Z,8.28
2023-02-15T10:00:56.532Z,7.96
2023-02-15T10:03:43.379Z,8.86
2023-02-15T10:06:36.475Z,9.96
2023-02-15T10:09:26.037Z,9.75
2023-02-15T10:12:07.111Z,10.59
2023-02-15T10:15:03.739Z,11.66
2023-02-15T10:18:17.055Z,12.04
2023-02-15T10:21:04.325Z,11.31
2023-02-15T10:23:51.171Z,10.49
2023-02-15T10:26:35.621Z,10.20
2023-02-15T10:29:06.566Z,10.16
2023-02-15T10:31:48.069Z,10.63
2023-02-15T10:34:20.758Z,11.50
2023-02-15T10:37:25.949Z,11.45
2023-02-15T10:40:23.303Z,11.19
2023-02-15T10:43:01.926Z,12.07
2023-02-15T10:45:49.252Z,12.72
2023-02-15T10:48:23.552Z,13.20
2023-02-15T10:50:55.197Z,12.94
2023-02-15T10:53:26.462Z,12.97
2023-02-15T10:56:20.475Z,12.15
2023-02-15T10:59:11.836Z,11.99
2023-02-15T11:02:15.634Z,12.90
2023-02-15T11:05:04.151Z,13.76
2023-02-15T11:07:44.538Z,14.38
2023-02-15T11:10:42.084Z,14.13
2023-02-15T11:13:15.991Z,14.47
2023-02-15T11:15:50.339Z,14.88
2023-02-15T11:18:43.233Z,14.36
2023-02-15T11:21:14.097Z,14.76
2023-02-15T11:23:45.904Z,14.84
2023-02-15T11:26:21.609Z,14.22
2023-02-15T11:28:56.346Z,13.51
2023-02-15T11:31:28.045Z,13.77
2023-02-15T11:34:13.283Z,14.57
2023-02-15T11:36:44.517Z,15.74
2023-02-15T11:39:18.527Z,16.15
2023-02-15T11:41:53.362Z,15.30
2023-02-15T11:44:48.354Z,15.25
2023-02-15T11:47:16.577Z,15.51
2023-02-15T11:49:47.052Z,15.31
2023-02-15T11:52:18.823Z,15.11
2023-02-15T11:54:53.116Z,15.06
2023-02-15T11:57:23.084Z,14.91
2023-02-15T12:00:05.143Z,14.41
2023-02-15T12:02:38.466Z,13.87
2023-02-15T12:05:15.135Z,13.72
2023-02-15T12:08:07.000Z,13.72
2023-02-15T12:10:41.384Z,13.79
2023-02-15T12:13:14.045Z,13.83
2023-02-15T12:15:46.669Z,13.57
2023-02-15T12:18:25.669Z,13.21
2023-02-15T12:20:54.178Z,12.60
2023-02-15T12:23:23.209Z,12.28
2023-02-15T12:25:57.039Z,11.83
2023-02-15T12:28:32.606Z,11.76
2023-02-15T12:31:03.954Z,11.71
2023-02-15T12:33:46.651Z,11.74
2023-02-15T12:36:23.690Z,11.67
2023-02-15T12:39:17.410Z,11.63
2023-02-15T12:41:58.179Z,11.55
2023-02-15T12:44:38.238Z,11.55
2023-02-15T12:47:20.439Z,11.61
2023-02-15T12:50:21.355Z,11.85
2023-02-15T12:52:52.811Z,12.28
2023-02-15T12:55:33.167Z,12.46
2023-02-15T12:58:24.688Z,12.62
2023-02-15T13:01:18.903Z,12.52
2023-02-15T13:04:00.966Z,12.78
2023-02-15T13:06:33.327Z,13.09
2023-02-15T13:09:14.505Z,13.62
2023-02-15T13:11:45.747Z,14.27
2023-02-15T13:14:23.683Z,14.66
2023-02-15T13:16:54.635Z,15.18
2023-02-15T13:19:46.119Z,15.70
2023-02-15T13:22:17.976Z,16.11
2023-02-15T13:25:02.741Z,16.53
2023-02-15T13:27:41.045Z,16.73
2023-02-15T13:30:22.479Z,15.96
2023-02-15T13:33:00.944Z,14.89
2023-02-15T13:35:39.457Z,13.94
2023-02-15T13:38:38.846Z,12.98
2023-02-15T13:41:17.977Z,12.01
2023-02-15T13:44:04.272Z,11.26
2023-02-15T13:46:38.692Z,10.57
2023-02-15T13:49:27.339Z,10.06
2023-02-15T13:52:05.548Z,9.63
2023-02-15T13:54:54.705Z,9.31
2023-02-15T13:57:32.204Z,9.05
2023-02-15T14:00:09.798Z,8.77
2023-02-15T14:03:14.305Z,8.49
2023-02-15T14:06:07.352Z,8.28
2023-02-15T14:09:13.191Z,8.13
2023-02-15T14:12:13.701Z,7.86
2023-02-15T14:15:16.817Z,7.76
2023-02-15T14:18:09.311Z,7.74
2023-02-15T14:20:57.570Z,8.20
2023-02-15T14:23:50.805Z,9.98
2023-02-15T14:26:26.658Z,11.62
2023-02-15T14:29:06.092Z,12.67
2023-02-15T14:31:41.073Z,13.39
2023-02-15T14:34:22.329Z,13.19
2023-02-15T14:36:52.983Z,12.31
2023-02-15T14:39:48.845Z,11.58
2023-02-15T14:42:40.154Z,10.94
2023-02-15T14:45:22.716Z,10.39
2023-02-15T14:48:06.458Z,9.81
2023-02-15T14:50:45.068Z,9.78
2023-02-15T14:53:33.677Z,9.90
2023-02-15T14:56:19.338Z,9.55
2023-02-15T14:58:53.562Z,9.11
2023-02-15T15:01:33.020Z,8.80
2023-02-15T15:04:09.976Z,8.48
2023-02-15T15:06:41.869Z,8.13
2023-02-15T15:09:10.235Z,7.88
2023-02-15T15:11:44.045Z,7.67
2023-02-15T15:14:33.310Z,7.46
2023-02-15T15:17:04.920Z,7.24
2023-02-15T15:19:52.621Z,7.08
2023-02-15T15:22:26.654Z,6.91
2023-02-15T15:25:22.405Z,6.75
2023-02-15T15:27:54.437Z,6.48
2023-02-15T15:30:22.808Z,6.26
2023-02-15T15:32:57.884Z,6.10
2023-02-15T15:35:48.169Z,5.98
2023-02-15T15:38:47.971Z,5.82
2023-02-15T15:41:20.443Z,5.63
2023-02-15T15:44:07.567Z,5.52
2023-02-15T15:46:54.775Z,5.45
2023-02-15T15:49:29.368Z,5.36
2023-02-15T15:52:02.742Z,5.29
2023-02-15T15:54:31.298Z,5.22
2023-02-15T15:57:03.627Z,5.15
2023-02-15T15:59:35.279Z,5.05
2023-02-15T16:02:16.464Z,4.96
2023-02-15T16:04:47.087Z,4.87
2023-02-15T16:07:18.492Z,4.74
2023-02-15T16:10:20.443Z,4.56
2023-02-15T16:12:50.698Z,4.33
2023-02-15T16:15:24.679Z,4.19
2023-02-15T16:17:57.380Z,4.10
2023-02-15T16:20:27.808Z,4.02
2023-02-15T16:23:10.600Z,3.98
2023-02-15T16:25:49.626Z,3.90
2023-02-15T16:28:19.672Z,3.86
2023-02-15T16:31:07.219Z,3.84
2023-02-15T16:33:40.324Z,3.84
2023-02-15T16:36:13.880Z,3.84
2023-02-15T16:38:44.808Z,3.83
2023-02-15T16:41:22.404Z,3.76
2023-02-15T16:43:53.908Z,3.67
2023-02-15T16:46:29.761Z,3.57
2023-02-15T16:49:02.980Z,3.50
2023-02-15T16:51:35.288Z,3.45
2023-02-15T16:54:24.642Z,3.36
2023-02-15T16:56:52.939Z,3.29
2023-02-15T16:59:44.492Z,3.25
2023-02-15T17:02:43.127Z,3.18
2023-02-15T17:05:19.565Z,3.08
2023-02-15T17:08:08.168Z,3.03
2023-02-15T17:10:42.972Z,3.01
2023-02-15T17:13:16.561Z,2.98
2023-02-15T17:16:03.320Z,2.97
2023-02-15T17:18:54.984Z,2.97
2023-02-15T17:21:29.061Z,2.93
2023-02-15T17:24:01.687Z,2.88
2023-02-15T17:26:38.756Z,2.81
2023-02-15T17:29:36.511Z,2.77
2023-02-15T17:32:13.931Z,2.76
2023-02-15T17:34:45.258Z,2.77
2023-02-15T17:37:24.993Z,2.75
2023-02-15T17:39:53.996Z,2.70
2023-02-15T17:42:22.481Z,2.63
2023-02-15T17:44:51.181Z,2.54
2023-02-15T17:47:25.536Z,2.44
2023-02-15T17:49:55.442Z,2.36
2023-02-15T17:52:28.707Z,2.28
2023-02-15T17:55:18.284Z,2.19
2023-02-15T17:57:46.564Z,2.08
2023-02-15T18:00:35.106Z,1.99
2023-02-15T18:03:22.833Z,1.89
2023-02-15T18:06:14.698Z,1.81
2023-02-15T18:09:05.038Z,1.73
2023-02-15T18:11:39.464Z,1.67
2023-02-15T18:14:10.304Z,1.57
2023-02-15T18:16:43.723Z,1.47
2023-02-15T18:19:19.250Z,1.38
2023-02-15T18:21:55.723Z,1.31
2023-02-15T18:24:26.773Z,1.26
2023-02-15T18:26:55.672Z,1.19
2023-02-15T18:29:25.093Z,1.14
2023-02-15T18:31:57.637Z,1.07
2023-02-15T18:34:31.257Z,0.99
2023-02-15T18:37:03.732Z,0.90
2023-02-15T18:39:48.590Z,0.81
2023-02-15T18:42:24.558Z,0.73
2023-02-15T18:44:56.671Z,0.67
2023-02-15T18:47:25.296Z,0.61
2023-02-15T18:49:55.536Z,0.51
2023-02-15T18:52:36.471Z,0.42
2023-02-15T18:55:16.135Z,0.36
2023-02-15T18:57:48.713Z,0.30
2023-02-15T19:00:18.039Z,0.26
2023-02-15T19:02:47.268Z,0.21
2023-02-15T19:05:18.302Z,0.15
2023-02-15T19:07:48.752Z,0.09
2023-02-15T19:10:24.671Z,0.07
2023-02-15T19:12:56.933Z,0.03
2023-02-15T19:15:33.907Z,-0.01
2023-02-15T19:18:02.122Z,-0.05
2023-02-15T19:20:40.160Z,-0.12
2023-02-15T19:23:19.600Z,-0.19
2023-02-15T19:25:49.208Z,-0.24
2023-02-15T19:28:22.243Z,-0.27
2023-02-15T19:30:50.440Z,-0.33
2023-02-15T19:33:23.859Z,-0.36
2023-02-15T19:35:59.219Z,-0.40
2023-02-15T19:38:35.194Z,-0.42
2023-02-15T19:41:08.854Z,-0.45
2023-02-15T19:43:39.257Z,-0.47
2023-02-15T19:46:07.733Z,-0.50
2023-02-15T19:48:36.231Z,-0.51
2023-02-15T19:51:05.030Z,-0.52
2023-02-15T19:53:33.723Z,-0.54
2023-02-15T19:56:02.460Z,-0.58
2023-02-15T19:58:31.099Z,-0.62
2023-02-15T20:00:59.786Z,-0.65
2023-02-15T20:03:28.177Z,-0.69
2023-02-15T20:05:56.562Z,-0.70
2023-02-15T20:08:25.529Z,-0.73
2023-02-15T20:10:53.949Z,-0.76
2023-02-15T20:13:24.988Z,-0.78
2023-02-15T20:15:53.239Z,-0.82
2023-02-15T20:18:22.687Z,-0.87
2023-02-15T20:20:54.037Z,-0.94
2023-02-15T20:23:27.422Z,-1.00
2023-02-15T20:26:03.286Z,-1.05
2023-02-15T20:28:31.975Z,-1.11
2023-02-15T20:31:00.675Z,-1.18
2023-02-15T20:33:31.707Z,-1.24
2023-02-15T20:36:00.192Z,-1.25
2023-02-15T20:38:32.531Z,-1.28
2023-02-15T20:41:20.507Z,-1.31
2023-02-15T20:43:49.189Z,-1.32
2023-02-15T20:46:18.217Z,-1.31
2023-02-15T20:48:46.779Z,-1.33
2023-02-15T20:51:21.142Z,-1.32
2023-02-15T20:53:49.400Z,-1.31
2023-02-15T20:56:23.791Z,-1.30
2023-02-15T20:58:53.826Z,-1.26
2023-02-15T21:01:22.137Z,-1.21
2023-02-15T21:03:51.598Z,-1.13
2023-02-15T21:06:19.909Z,-1.03
2023-02-15T21:08:48.301Z,-0.97
2023-02-15T21:11:20.843Z,-0.89
2023-02-15T21:13:50.691Z,-0.82
2023-02-15T21:16:19.409Z,-0.78
2023-02-15T21:18:47.661Z,-0.74
2023-02-15T21:21:23.636Z,-0.67
2023-02-15T21:23:53.455Z,-0.54
2023-02-15T21:26:23.151Z,-0.41
2023-02-15T21:28:51.798Z,-0.32
2023-02-15T21:31:22.760Z,-0.21
2023-02-15T21:33:52.391Z,-0.13
2023-02-15T21:36:25.291Z,-0.06
2023-02-15T21:38:54.080Z,-0.02
2023-02-15T21:41:43.333Z,0.03
2023-02-15T21:44:41.806Z,0.07
2023-02-15T21:47:41.413Z,0.11
2023-02-15T21:50:36.094Z,0.04
2023-02-15T21:53:05.504Z,-0.05
2023-02-15T21:55:33.994Z,-0.09
2023-02-15T21:58:02.595Z,-0.09
2023-02-15T22:00:31.209Z,-0.06
2023-02-15T22:03:01.283Z,-0.05
2023-02-15T22:05:32.212Z,-0.07
2023-02-15T22:08:00.952Z,-0.09
2023-02-15T22:10:31.649Z,-0.09
2023-02-15T22:13:01.881Z,-0.07
2023-02-15T22:15:37.856Z,-0.06
2023-02-15T22:18:06.731Z,-0.05
2023-02-15T22:20:35.118Z,-0.05
2023-02-15T22:23:03.612Z,-0.05
2023-02-15T22:25:32.090Z,-0.09
2023-02-15T22:28:00.270Z,-0.13
2023-02-15T22:30:37.103Z,-0.13
2023-02-15T22:33:05.430Z,-0.14
2023-02-15T22:35:37.016Z,-0.18
2023-02-15T22:38:05.161Z,-0.19
2023-02-15T22:40:34.564Z,-0.19
2023-02-15T22:43:05.819Z,-0.20
2023-02-15T22:45:35.901Z,-0.18
2023-02-15T22:48:04.430Z,-0.16
2023-02-15T22:50:33.425Z,-0.15
2023-02-15T22:53:03.766Z,-0.16
2023-02-15T22:55:36.554Z,-0.16
2023-02-15T22:58:05.622Z,-0.14
2023-02-15T23:00:39.760Z,-0.12
2023-02-15T23:03:34.629Z,-0.13
2023-02-15T23:06:04.462Z,-0.21
2023-02-15T23:08:32.644Z,-0.24
2023-02-15T23:11:01.027Z,-0.24
2023-02-15T23:13:33.276Z,-0.21
2023-02-15T23:16:03.592Z,-0.17
2023-02-15T23:18:40.004Z,-0.16
2023-02-15T23:21:28.142Z,-0.14
2023-02-15T23:24:02.463Z,-0.13
2023-02-15T23:26:31.727Z,-0.11
2023-02-15T23:29:01.644Z,-0.09
2023-02-15T23:31:34.247Z,-0.06
2023-02-15T23:34:13.050Z,-0.08
2023-02-15T23:36:41.364Z,-0.09
2023-02-15T23:39:38.708Z,-0.07
2023-02-15T23:42:14.689Z,-0.03
2023-02-15T23:44:48.169Z,0.03
2023-02-15T23:47:44.383Z,0.11
2023-02-15T23:50:26.789Z,0.21
2023-02-15T23:52:56.631Z,0.32
2023-02-15T23:55:38.089Z,0.42
2023-02-15T23:58:11.114Z,0.52
